Terminal Aerodrome Forecast
Issued by NWS

Home | Current Version | Previous Version | Text Only | Print | Product List | Glossary On
Versions: 1 2 3 4 5 6 7 8 9 10 11 12 13 14 15 16 17
000
FTAK31 PAFA 241405 AAA
TAFAOR
TAF AMD
PAOR 241405Z 2414/2512 VRB03KT P6SM -SHSN OVC025
      TEMPO 2415/2417 4SM -SHSN BR
     FM242000 VRB03KT P6SM -SHSN SCT007 BKN025 OVC040
     FM250400 VRB03KT P6SM -SHSN SCT025 BKN035 OVC050=

USA.gov is the U.S. government's official web portal to all federal, state and local government web resources and services.